createdAt,value
2023-05-06T00:02:14.324Z,67.59
2023-05-06T00:07:17.465Z,67.85
2023-05-06T00:12:20.771Z,68.08
2023-05-06T00:17:24.165Z,67.80
2023-05-06T00:22:27.391Z,67.56
2023-05-06T00:27:30.515Z,67.40
2023-05-06T00:32:33.518Z,67.08
2023-05-06T00:37:36.612Z,66.78
2023-05-06T00:42:39.812Z,66.47
2023-05-06T00:47:43.479Z,66.20
2023-05-06T00:52:46.847Z,65.79
2023-05-06T00:57:50.770Z,65.22
2023-05-06T01:02:53.802Z,64.91
2023-05-06T01:08:16.033Z,64.66
2023-05-06T01:13:18.952Z,64.50
2023-05-06T01:18:23.570Z,64.47
2023-05-06T01:23:26.799Z,64.59
2023-05-06T01:28:29.883Z,64.97
2023-05-06T01:33:37.508Z,65.51
2023-05-06T01:38:56.078Z,66.30
2023-05-06T01:44:00.625Z,66.62
2023-05-06T01:49:10.647Z,66.93
2023-05-06T01:54:14.392Z,67.46
2023-05-06T01:59:17.510Z,67.83
2023-05-06T02:04:20.604Z,68.06
2023-05-06T02:09:23.715Z,68.35
2023-05-06T02:14:27.121Z,68.40
2023-05-06T02:19:30.345Z,68.72
2023-05-06T02:24:33.333Z,69.10
2023-05-06T02:29:36.438Z,69.40
2023-05-06T02:34:39.442Z,69.53
2023-05-06T02:39:42.444Z,69.79
2023-05-06T02:44:45.344Z,70.08
2023-05-06T02:49:48.247Z,70.54
2023-05-06T02:54:51.144Z,71.00
2023-05-06T02:59:54.156Z,71.50
2023-05-06T03:04:57.148Z,71.30
2023-05-06T03:10:00.361Z,71.15
2023-05-06T03:15:03.880Z,71.06
2023-05-06T03:20:08.957Z,70.78
2023-05-06T03:25:12.284Z,70.56
2023-05-06T03:30:15.642Z,70.09
2023-05-06T03:35:18.866Z,69.47
2023-05-06T03:40:21.971Z,68.76
2023-05-06T03:45:25.061Z,68.09
2023-05-06T03:50:28.072Z,67.50
2023-05-06T03:55:31.278Z,66.52
2023-05-06T04:00:34.275Z,64.92
2023-05-06T04:05:37.286Z,63.13
2023-05-06T04:10:41.205Z,61.64
2023-05-06T04:15:44.128Z,58.32
2023-05-06T04:20:48.373Z,56.29
2023-05-06T04:25:51.338Z,56.48
2023-05-06T04:30:54.342Z,56.59
2023-05-06T04:35:57.452Z,56.82
2023-05-06T04:41:00.670Z,57.08
2023-05-06T04:46:03.842Z,56.91
2023-05-06T04:51:06.871Z,56.51
2023-05-06T04:56:09.873Z,56.36
2023-05-06T05:01:12.892Z,56.11
2023-05-06T05:06:16.392Z,56.27
2023-05-06T05:11:19.709Z,56.37
2023-05-06T05:16:22.832Z,56.31
2023-05-06T05:21:26.120Z,55.57
2023-05-06T05:26:29.346Z,54.30
2023-05-06T05:31:33.019Z,53.96
2023-05-06T05:36:36.462Z,52.73
2023-05-06T05:41:40.090Z,51.66
2023-05-06T05:46:43.179Z,50.43
2023-05-06T05:51:46.285Z,49.51
2023-05-06T05:56:50.722Z,49.71
2023-05-06T06:01:53.625Z,48.58
2023-05-06T06:07:02.112Z,46.94
2023-05-06T06:12:05.274Z,47.46
2023-05-06T06:17:08.495Z,46.78
2023-05-06T06:22:11.576Z,45.23
2023-05-06T06:27:14.783Z,45.30
2023-05-06T06:32:18.501Z,43.18
2023-05-06T06:37:21.816Z,42.23
2023-05-06T06:42:24.816Z,41.32
2023-05-06T06:47:27.943Z,40.26
2023-05-06T06:52:31.953Z,39.44
2023-05-06T06:57:35.676Z,39.23
2023-05-06T07:02:39.024Z,38.89
2023-05-06T07:07:42.641Z,39.17
2023-05-06T07:12:46.075Z,38.97
2023-05-06T07:17:49.173Z,38.13
2023-05-06T07:22:52.223Z,36.41
2023-05-06T07:27:55.358Z,36.69
2023-05-06T07:32:58.460Z,36.06
2023-05-06T07:38:01.538Z,35.90
2023-05-06T07:43:04.655Z,35.50
2023-05-06T07:48:07.832Z,35.22
2023-05-06T07:53:12.084Z,35.43
2023-05-06T07:58:15.320Z,35.44
2023-05-06T08:03:18.647Z,34.95
2023-05-06T08:08:23.203Z,35.52
2023-05-06T08:13:27.174Z,35.59
2023-05-06T08:18:30.444Z,36.01
2023-05-06T08:23:33.796Z,35.84
2023-05-06T08:28:37.010Z,36.15
2023-05-06T08:33:39.900Z,36.20
2023-05-06T08:38:49.204Z,36.42
2023-05-06T08:43:54.614Z,36.79
2023-05-06T08:48:58.345Z,36.71
2023-05-06T08:54:05.130Z,36.86
2023-05-06T08:59:11.117Z,36.95
2023-05-06T09:04:16.456Z,37.93
2023-05-06T09:09:19.559Z,37.94
2023-05-06T09:14:23.078Z,38.21
2023-05-06T09:19:27.000Z,38.32
2023-05-06T09:24:30.003Z,38.50
2023-05-06T09:29:33.221Z,38.57
2023-05-06T09:34:36.544Z,38.92
2023-05-06T09:39:39.630Z,39.40
2023-05-06T09:44:42.842Z,39.61
2023-05-06T09:49:46.163Z,39.16
2023-05-06T09:54:51.759Z,38.75
2023-05-06T09:59:55.895Z,38.50
2023-05-06T10:05:00.074Z,38.53
2023-05-06T10:10:04.713Z,38.64
2023-05-06T10:15:09.069Z,38.73
2023-05-06T10:20:14.152Z,38.92
2023-05-06T10:25:22.680Z,38.77
2023-05-06T10:30:26.863Z,39.10
2023-05-06T10:35:39.285Z,39.63
2023-05-06T10:40:42.798Z,39.59
2023-05-06T10:45:59.118Z,39.82
2023-05-06T10:51:32.017Z,39.50
2023-05-06T10:57:03.196Z,39.11
2023-05-06T11:02:10.436Z,38.83
2023-05-06T11:07:22.091Z,39.57
2023-05-06T11:12:44.369Z,39.30
2023-05-06T11:17:47.493Z,39.26
2023-05-06T11:22:50.653Z,39.91
2023-05-06T11:27:56.234Z,40.05
2023-05-06T11:33:05.567Z,40.13
2023-05-06T11:38:09.458Z,39.72
2023-05-06T11:43:12.611Z,39.86
2023-05-06T11:48:16.324Z,38.70
2023-05-06T11:53:21.331Z,38.48
2023-05-06T11:58:27.792Z,39.26
2023-05-06T12:03:33.392Z,39.61
2023-05-06T12:08:37.345Z,39.16
2023-05-06T12:13:40.959Z,39.30
2023-05-06T12:18:45.084Z,38.62
2023-05-06T12:23:55.595Z,38.63
2023-05-06T12:29:09.137Z,38.90
2023-05-06T12:34:12.145Z,39.05
2023-05-06T12:39:15.239Z,39.33
2023-05-06T12:44:38.007Z,39.40
2023-05-06T12:49:48.072Z,39.33
2023-05-06T12:54:54.939Z,39.98
2023-05-06T12:59:58.188Z,40.64
2023-05-06T13:05:02.195Z,40.71
2023-05-06T13:10:08.588Z,40.81
2023-05-06T13:15:12.002Z,40.72
2023-05-06T13:20:15.315Z,40.54
2023-05-06T13:25:18.428Z,40.60
2023-05-06T13:30:21.509Z,40.07
2023-05-06T13:35:24.610Z,39.52
2023-05-06T13:40:27.732Z,39.76
2023-05-06T13:45:31.140Z,39.61
2023-05-06T13:50:36.286Z,38.97
2023-05-06T13:55:39.499Z,39.54
2023-05-06T14:00:42.493Z,39.58
2023-05-06T14:05:45.599Z,39.52
2023-05-06T14:10:48.615Z,39.78
2023-05-06T14:15:51.626Z,39.85
2023-05-06T14:20:55.017Z,39.85
2023-05-06T14:25:58.343Z,40.07
2023-05-06T14:31:01.350Z,40.43
2023-05-06T14:36:04.748Z,40.67
2023-05-06T14:41:07.681Z,41.12
2023-05-06T14:46:11.630Z,41.56
2023-05-06T14:51:14.785Z,41.14
2023-05-06T14:56:17.816Z,41.28
2023-05-06T15:01:20.942Z,41.60
2023-05-06T15:06:24.243Z,41.53
2023-05-06T15:11:27.422Z,41.10
2023-05-06T15:16:30.907Z,40.82
2023-05-06T15:21:34.234Z,40.93
2023-05-06T15:26:37.240Z,40.48
2023-05-06T15:31:41.273Z,40.60
2023-05-06T15:36:44.783Z,40.96
2023-05-06T15:41:48.395Z,40.83
2023-05-06T15:46:51.444Z,40.91
2023-05-06T15:51:54.919Z,40.86
2023-05-06T15:57:00.792Z,40.97
2023-05-06T16:07:10.080Z,41.11
2023-05-06T16:12:15.028Z,40.98
2023-05-06T16:17:18.258Z,40.98
2023-05-06T16:22:21.426Z,40.93
2023-05-06T16:27:24.746Z,41.57
2023-05-06T16:32:27.874Z,42.07
2023-05-06T16:37:31.387Z,42.42
2023-05-06T16:42:34.473Z,42.76
2023-05-06T16:47:37.572Z,42.72
2023-05-06T16:52:41.191Z,42.82
2023-05-06T16:57:44.316Z,42.94
2023-05-06T17:02:47.791Z,43.37
2023-05-06T17:07:51.075Z,43.84
2023-05-06T17:12:54.267Z,44.13
2023-05-06T17:17:57.599Z,44.33
2023-05-06T17:23:00.864Z,44.62
2023-05-06T17:28:03.952Z,45.06
2023-05-06T17:33:07.626Z,45.48
2023-05-06T17:38:12.212Z,45.86
2023-05-06T17:43:16.090Z,46.36
2023-05-06T17:48:19.372Z,46.84
2023-05-06T17:53:23.389Z,47.22
2023-05-06T17:58:27.500Z,47.65
2023-05-06T18:03:31.215Z,47.98
2023-05-06T18:08:34.530Z,48.17
2023-05-06T18:13:37.759Z,48.60
2023-05-06T18:18:41.275Z,49.10
2023-05-06T18:23:45.031Z,49.47
2023-05-06T18:28:48.517Z,49.97
2023-05-06T18:33:52.359Z,50.27
2023-05-06T18:38:55.829Z,50.66
2023-05-06T18:43:59.441Z,50.92
2023-05-06T18:49:02.888Z,51.07
2023-05-06T18:54:07.717Z,51.23
2023-05-06T18:59:11.701Z,51.38
2023-05-06T19:04:15.390Z,51.70
2023-05-06T19:09:18.984Z,51.81
2023-05-06T19:14:23.684Z,52.14
2023-05-06T19:19:28.661Z,52.81
2023-05-06T19:24:31.977Z,53.02
2023-05-06T19:29:35.280Z,53.35
2023-05-06T19:34:39.208Z,53.79
2023-05-06T19:39:42.986Z,54.24
2023-05-06T19:44:47.389Z,54.61
2023-05-06T19:49:52.175Z,55.03
2023-05-06T19:54:55.928Z,55.25
2023-05-06T20:00:00.695Z,55.40
2023-05-06T20:05:07.134Z,55.64
2023-05-06T20:10:13.810Z,55.86
2023-05-06T20:15:17.798Z,55.94
2023-05-06T20:20:21.600Z,56.18
2023-05-06T20:25:25.421Z,56.18
2023-05-06T20:30:28.673Z,56.06
2023-05-06T20:35:32.043Z,56.15
2023-05-06T20:40:37.918Z,56.19
2023-05-06T20:45:41.609Z,56.32
2023-05-06T20:50:45.150Z,56.47
2023-05-06T20:55:48.954Z,56.58
2023-05-06T21:00:52.742Z,56.83
2023-05-06T21:05:55.792Z,56.98
2023-05-06T21:10:58.964Z,57.27
2023-05-06T21:16:03.438Z,57.37
2023-05-06T21:21:06.755Z,57.75
2023-05-06T21:26:11.274Z,57.96
2023-05-06T21:31:15.028Z,58.24
2023-05-06T21:36:18.046Z,58.37
2023-05-06T21:41:21.518Z,58.50
2023-05-06T21:46:24.679Z,58.79
2023-05-06T21:51:29.544Z,59.05
2023-05-06T21:56:32.881Z,59.32
2023-05-06T22:01:36.825Z,59.55
2023-05-06T22:06:40.016Z,59.58
2023-05-06T22:11:43.122Z,59.59
2023-05-06T22:16:46.130Z,59.98
2023-05-06T22:21:49.333Z,59.96
2023-05-06T22:26:52.435Z,60.11
2023-05-06T22:31:56.101Z,60.24
2023-05-06T22:37:00.698Z,60.43
2023-05-06T22:42:04.516Z,60.57
2023-05-06T22:47:07.534Z,60.77
2023-05-06T22:52:10.825Z,60.81
2023-05-06T22:57:14.678Z,60.86
2023-05-06T23:02:17.862Z,60.90
2023-05-06T23:07:20.865Z,61.06
2023-05-06T23:12:23.973Z,61.23
2023-05-06T23:17:27.036Z,61.42
2023-05-06T23:22:29.974Z,61.54
2023-05-06T23:27:33.013Z,61.66
2023-05-06T23:32:36.726Z,61.90
2023-05-06T23:37:40.010Z,62.19
2023-05-06T23:42:43.121Z,62.72
2023-05-06T23:47:46.575Z,63.08
2023-05-06T23:52:49.687Z,63.23
2023-05-06T23:57:53.035Z,63.56
